sensor_id;sensor_type;location;lat;lon;timestamp;pressure;altitude;pressure_sealevel;temperature;humidity
21588;BME280;10956;48.878;13.316;2023-09-19T00:00:26;93910.03;;;15.57;100.00
21588;BME280;10956;48.878;13.316;2023-09-19T00:02:54;93897.03;;;15.55;100.00
21588;BME280;10956;48.878;13.316;2023-09-19T00:05:20;93908.28;;;15.52;100.00
21588;BME280;10956;48.878;13.316;2023-09-19T00:07:50;93914.19;;;15.49;100.00
21588;BME280;10956;48.878;13.316;2023-09-19T00:10:16;93912.31;;;15.49;100.00
21588;BME280;10956;48.878;13.316;2023-09-19T00:12:45;93918.22;;;15.46;100.00
21588;BME280;10956;48.878;13.316;2023-09-19T00:15:10;93925.41;;;15.46;100.00
21588;BME280;10956;48.878;13.316;2023-09-19T00:17:36;93925.53;;;15.41;100.00
21588;BME280;10956;48.878;13.316;2023-09-19T00:20:03;93929.41;;;15.35;100.00
21588;BME280;10956;48.878;13.316;2023-09-19T00:22:41;93927.81;;;15.34;100.00
21588;BME280;10956;48.878;13.316;2023-09-19T00:25:10;93935.91;;;15.29;100.00
21588;BME280;10956;48.878;13.316;2023-09-19T00:27:39;93931.69;;;15.28;100.00
21588;BME280;10956;48.878;13.316;2023-09-19T00:30:06;93931.19;;;15.26;100.00
21588;BME280;10956;48.878;13.316;2023-09-19T00:32:34;93926.38;;;15.28;100.00
21588;BME280;10956;48.878;13.316;2023-09-19T00:34:59;93932.16;;;15.30;100.00
21588;BME280;10956;48.878;13.316;2023-09-19T00:37:25;93932.78;;;15.27;100.00
21588;BME280;10956;48.878;13.316;2023-09-19T00:39:50;93931.19;;;15.26;100.00
21588;BME280;10956;48.878;13.316;2023-09-19T00:42:20;93923.72;;;15.28;100.00
21588;BME280;10956;48.878;13.316;2023-09-19T00:44:46;93918.72;;;15.26;100.00
21588;BME280;10956;48.878;13.316;2023-09-19T00:47:12;93913.63;;;15.16;100.00
21588;BME280;10956;48.878;13.316;2023-09-19T00:49:42;93912.75;;;15.21;100.00
21588;BME280;10956;48.878;13.316;2023-09-19T00:52:08;93912.25;;;15.18;100.00
21588;BME280;10956;48.878;13.316;2023-09-19T00:54:35;93915.28;;;15.26;100.00
21588;BME280;10956;48.878;13.316;2023-09-19T00:57:01;93921.38;;;15.26;100.00
21588;BME280;10956;48.878;13.316;2023-09-19T00:59:27;93918.53;;;15.23;100.00
21588;BME280;10956;48.878;13.316;2023-09-19T01:01:56;93919.38;;;15.32;100.00
21588;BME280;10956;48.878;13.316;2023-09-19T01:04:22;93915.28;;;15.26;100.00
21588;BME280;10956;48.878;13.316;2023-09-19T01:06:49;93914.31;;;15.22;100.00
21588;BME280;10956;48.878;13.316;2023-09-19T01:09:21;93926.84;;;15.30;100.00
21588;BME280;10956;48.878;13.316;2023-09-19T01:11:48;93928.06;;;15.24;100.00
21588;BME280;10956;48.878;13.316;2023-09-19T01:14:33;93926.50;;;15.23;100.00
21588;BME280;10956;48.878;13.316;2023-09-19T01:22:21;93913.09;;;15.28;100.00
21588;BME280;10956;48.878;13.316;2023-09-19T01:27:50;93919.38;;;15.32;100.00
21588;BME280;10956;48.878;13.316;2023-09-19T01:30:22;93925.53;;;15.18;100.00
21588;BME280;10956;48.878;13.316;2023-09-19T01:32:53;93932.03;;;15.12;100.00
21588;BME280;10956;48.878;13.316;2023-09-19T01:35:19;93930.94;;;15.13;100.00
21588;BME280;10956;48.878;13.316;2023-09-19T01:37:44;93936.94;;;15.19;100.00
21588;BME280;10956;48.878;13.316;2023-09-19T01:40:12;93933.38;;;15.24;100.00
21588;BME280;10956;48.878;13.316;2023-09-19T01:42:52;93928.44;;;15.31;100.00
21588;BME280;10956;48.878;13.316;2023-09-19T01:48:14;93922.22;;;15.35;100.00
21588;BME280;10956;48.878;13.316;2023-09-19T01:51:02;93931.75;;;15.36;100.00
21588;BME280;10956;48.878;13.316;2023-09-19T01:54:08;93920.53;;;15.39;100.00
21588;BME280;10956;48.878;13.316;2023-09-19T01:59:25;93922.34;;;15.30;100.00
21588;BME280;10956;48.878;13.316;2023-09-19T02:01:54;93925.09;;;15.25;100.00
21588;BME280;10956;48.878;13.316;2023-09-19T02:04:20;93917.63;;;15.27;100.00
21588;BME280;10956;48.878;13.316;2023-09-19T02:06:45;93917.31;;;15.29;100.00
21588;BME280;10956;48.878;13.316;2023-09-19T02:09:13;93917.22;;;15.34;100.00
21588;BME280;10956;48.878;13.316;2023-09-19T02:11:40;93923.00;;;15.36;100.00
21588;BME280;10956;48.878;13.316;2023-09-19T02:14:06;93921.91;;;15.37;100.00
21588;BME280;10956;48.878;13.316;2023-09-19T02:16:34;93920.53;;;15.39;100.00
21588;BME280;10956;48.878;13.316;2023-09-19T02:18:59;93925.06;;;15.39;100.00
21588;BME280;10956;48.878;13.316;2023-09-19T02:21:25;93920.22;;;15.41;100.00
21588;BME280;10956;48.878;13.316;2023-09-19T02:23:55;93915.41;;;15.43;100.00
21588;BME280;10956;48.878;13.316;2023-09-19T02:26:20;93921.78;;;15.42;100.00
21588;BME280;10956;48.878;13.316;2023-09-19T02:28:46;93913.81;;;15.42;100.00
21588;BME280;10956;48.878;13.316;2023-09-19T02:31:11;93916.00;;;15.40;100.00
21588;BME280;10956;48.878;13.316;2023-09-19T02:33:37;93922.69;;;15.37;100.00
21588;BME280;10956;48.878;13.316;2023-09-19T02:36:03;93922.41;;;15.39;100.00
21588;BME280;10956;48.878;13.316;2023-09-19T02:38:29;93912.97;;;15.33;100.00
21588;BME280;10956;48.878;13.316;2023-09-19T02:40:55;93919.69;;;15.30;100.00
21588;BME280;10956;48.878;13.316;2023-09-19T02:43:21;93926.84;;;15.30;100.00
21588;BME280;10956;48.878;13.316;2023-09-19T02:45:47;93929.03;;;15.28;100.00
21588;BME280;10956;48.878;13.316;2023-09-19T02:48:15;93920.88;;;15.24;100.00
21588;BME280;10956;48.878;13.316;2023-09-19T02:50:41;93929.25;;;15.17;100.00
21588;BME280;10956;48.878;13.316;2023-09-19T02:53:07;93930.84;;;15.18;100.00
21588;BME280;10956;48.878;13.316;2023-09-19T02:55:32;93933.97;;;15.21;100.00
21588;BME280;10956;48.878;13.316;2023-09-19T02:57:58;93930.84;;;15.18;100.00
21588;BME280;10956;48.878;13.316;2023-09-19T03:00:24;93930.84;;;15.18;100.00
21588;BME280;10956;48.878;13.316;2023-09-19T03:02:50;93933.66;;;15.22;100.00
21588;BME280;10956;48.878;13.316;2023-09-19T03:05:17;93928.72;;;15.29;100.00
21588;BME280;10956;48.878;13.316;2023-09-19T03:07:43;93926.25;;;15.33;100.00
21588;BME280;10956;48.878;13.316;2023-09-19T03:10:11;93925.19;;;15.34;100.00
21588;BME280;10956;48.878;13.316;2023-09-19T03:12:36;93918.41;;;15.28;100.00
21588;BME280;10956;48.878;13.316;2023-09-19T03:15:02;93920.59;;;15.26;100.00
21588;BME280;10956;48.878;13.316;2023-09-19T03:17:29;93930.34;;;15.16;100.00
21588;BME280;10956;48.878;13.316;2023-09-19T03:19:55;93928.66;;;15.21;100.00
21588;BME280;10956;48.878;13.316;2023-09-19T03:22:20;93924.63;;;15.23;100.00
21588;BME280;10956;48.878;13.316;2023-09-19T03:24:46;93922.16;;;15.27;100.00
21588;BME280;10956;48.878;13.316;2023-09-19T03:27:11;93910.94;;;15.30;100.00
21588;BME280;10956;48.878;13.316;2023-09-19T03:29:39;93923.91;;;15.31;100.00
21588;BME280;10956;48.878;13.316;2023-09-19T03:32:05;93917.81;;;15.31;100.00
21588;BME280;10956;48.878;13.316;2023-09-19T03:34:31;93917.22;;;15.34;100.00
21588;BME280;10956;48.878;13.316;2023-09-19T03:36:56;93920.34;;;15.36;100.00
21588;BME280;10956;48.878;13.316;2023-09-19T03:39:22;93922.53;;;15.34;100.00
21588;BME280;10956;48.878;13.316;2023-09-19T03:41:48;93920.94;;;15.33;100.00
21588;BME280;10956;48.878;13.316;2023-09-19T03:44:13;93911.72;;;15.30;100.00
21588;BME280;10956;48.878;13.316;2023-09-19T03:46:38;93918.59;;;15.31;100.00
21588;BME280;10956;48.878;13.316;2023-09-19T03:49:04;93919.38;;;15.32;100.00
21588;BME280;10956;48.878;13.316;2023-09-19T03:51:29;93930.19;;;15.35;100.00
21588;BME280;10956;48.878;13.316;2023-09-19T03:53:55;93933.13;;;15.34;100.00
21588;BME280;10956;48.878;13.316;2023-09-19T03:56:21;93929.50;;;15.30;100.00
21588;BME280;10956;48.878;13.316;2023-09-19T03:58:46;93926.38;;;15.28;100.00
21588;BME280;10956;48.878;13.316;2023-09-19T04:01:12;93925.88;;;15.26;100.00
21588;BME280;10956;48.878;13.316;2023-09-19T04:03:38;93925.53;;;15.18;100.00
21588;BME280;10956;48.878;13.316;2023-09-19T04:06:13;93927.69;;;15.16;100.00
21588;BME280;10956;48.878;13.316;2023-09-19T04:08:38;93920.34;;;15.13;100.00
21588;BME280;10956;48.878;13.316;2023-09-19T04:11:03;93925.63;;;15.13;100.00
21588;BME280;10956;48.878;13.316;2023-09-19T04:13:29;93923.09;;;15.08;100.00
21588;BME280;10956;48.878;13.316;2023-09-19T04:15:55;93938.91;;;15.13;100.00
21588;BME280;10956;48.878;13.316;2023-09-19T04:18:20;93934.56;;;15.17;100.00
21588;BME280;10956;48.878;13.316;2023-09-19T04:20:51;93930.84;;;15.18;100.00
21588;BME280;10956;48.878;13.316;2023-09-19T04:23:16;93935.25;;;15.23;100.00
21588;BME280;10956;48.878;13.316;2023-09-19T04:25:48;93937.47;;;15.30;100.00
21588;BME280;10956;48.878;13.316;2023-09-19T04:28:16;93943.75;;;15.34;100.00
21588;BME280;10956;48.878;13.316;2023-09-19T04:30:42;93941.59;;;15.36;100.00
21588;BME280;10956;48.878;13.316;2023-09-19T04:33:08;93944.72;;;15.38;100.00
21588;BME280;10956;48.878;13.316;2023-09-19T04:35:34;93944.72;;;15.38;100.00
21588;BME280;10956;48.878;13.316;2023-09-19T04:38:00;93947.88;;;15.40;100.00
21588;BME280;10956;48.878;13.316;2023-09-19T04:40:25;93944.13;;;15.41;100.00
21588;BME280;10956;48.878;13.316;2023-09-19T04:42:58;93942.56;;;15.40;100.00
21588;BME280;10956;48.878;13.316;2023-09-19T04:45:24;93952.56;;;15.43;100.00
21588;BME280;10956;48.878;13.316;2023-09-19T04:47:49;93956.31;;;15.42;100.00
21588;BME280;10956;48.878;13.316;2023-09-19T04:50:15;93955.81;;;15.40;100.00
21588;BME280;10956;48.878;13.316;2023-09-19T04:52:43;93954.75;;;15.41;100.00
21588;BME280;10956;48.878;13.316;2023-09-19T04:55:15;93958.84;;;15.47;100.00
21588;BME280;10956;48.878;13.316;2023-09-19T04:57:45;93952.56;;;15.43;100.00
21588;BME280;10956;48.878;13.316;2023-09-19T05:00:19;93963.69;;;15.45;100.00
21588;BME280;10956;48.878;13.316;2023-09-19T05:02:52;93968.03;;;15.41;100.00
21588;BME280;10956;48.878;13.316;2023-09-19T05:05:18;93962.53;;;15.37;100.00
21588;BME280;10956;48.878;13.316;2023-09-19T05:07:44;93972.84;;;15.39;100.00
21588;BME280;10956;48.878;13.316;2023-09-19T05:10:10;93970.66;;;15.41;100.00
21588;BME280;10956;48.878;13.316;2023-09-19T05:12:37;93970.66;;;15.41;100.00
21588;BME280;10956;48.878;13.316;2023-09-19T05:15:03;93971.81;;;15.48;100.00
21588;BME280;10956;48.878;13.316;2023-09-19T05:17:29;93982.75;;;15.47;100.00
21588;BME280;10956;48.878;13.316;2023-09-19T05:19:55;93983.22;;;15.49;100.00
21588;BME280;10956;48.878;13.316;2023-09-19T05:22:21;93982.25;;;15.45;100.00
21588;BME280;10956;48.878;13.316;2023-09-19T05:24:46;93983.53;;;15.47;100.00
21588;BME280;10956;48.878;13.316;2023-09-19T05:27:14;93989.16;;;15.46;100.00
21588;BME280;10956;48.878;13.316;2023-09-19T05:29:45;93987.16;;;15.51;100.00
21588;BME280;10956;48.878;13.316;2023-09-19T05:32:11;93992.47;;;15.51;100.00
21588;BME280;10956;48.878;13.316;2023-09-19T05:34:37;93994.22;;;15.56;100.00
21588;BME280;10956;48.878;13.316;2023-09-19T05:37:02;93992.09;;;15.58;100.00
21588;BME280;10956;48.878;13.316;2023-09-19T05:39:28;93998.97;;;15.59;100.00
21588;BME280;10956;48.878;13.316;2023-09-19T05:41:53;94005.25;;;15.63;100.00
21588;BME280;10956;48.878;13.316;2023-09-19T05:44:19;93998.97;;;15.59;100.00
21588;BME280;10956;48.878;13.316;2023-09-19T05:46:44;94002.41;;;15.60;100.00
21588;BME280;10956;48.878;13.316;2023-09-19T05:49:13;94000.41;;;15.65;100.00
21588;BME280;10956;48.878;13.316;2023-09-19T05:51:38;94002.47;;;15.68;100.00
21588;BME280;10956;48.878;13.316;2023-09-19T05:54:04;94005.78;;;15.74;100.00
21588;BME280;10956;48.878;13.316;2023-09-19T05:56:30;94008.31;;;15.79;100.00
21588;BME280;10956;48.878;13.316;2023-09-19T05:58:56;94009.28;;;15.83;100.00
21588;BME280;10956;48.878;13.316;2023-09-19T06:01:21;94013.69;;;15.88;100.00
21588;BME280;10956;48.878;13.316;2023-09-19T06:03:47;94009.81;;;15.94;100.00
21588;BME280;10956;48.878;13.316;2023-09-19T06:06:13;94020.94;;;15.96;100.00
21588;BME280;10956;48.878;13.316;2023-09-19T06:08:39;94024.56;;;16.00;100.00
21588;BME280;10956;48.878;13.316;2023-09-19T06:11:04;94027.22;;;16.00;100.00
21588;BME280;10956;48.878;13.316;2023-09-19T06:13:32;94029.88;;;16.00;100.00
21588;BME280;10956;48.878;13.316;2023-09-19T06:15:58;94029.28;;;16.03;100.00
21588;BME280;10956;48.878;13.316;2023-09-19T06:18:25;94028.66;;;16.06;100.00
21588;BME280;10956;48.878;13.316;2023-09-19T06:20:51;94030.59;;;16.14;100.00
21588;BME280;10956;48.878;13.316;2023-09-19T06:23:17;94040.38;;;16.27;100.00
21588;BME280;10956;48.878;13.316;2023-09-19T06:25:45;94035.41;;;16.34;100.00
21588;BME280;10956;48.878;13.316;2023-09-19T06:28:10;94048.22;;;16.32;100.00
21588;BME280;10956;48.878;13.316;2023-09-19T06:30:40;94045.13;;;16.39;100.00
21588;BME280;10956;48.878;13.316;2023-09-19T06:33:05;94044.22;;;16.43;100.00
21588;BME280;10956;48.878;13.316;2023-09-19T06:35:33;94043.94;;;16.54;100.00
21588;BME280;10956;48.878;13.316;2023-09-19T06:38:02;94048.41;;;16.67;100.00
21588;BME280;10956;48.878;13.316;2023-09-19T06:40:28;94052.16;;;16.66;100.00
21588;BME280;10956;48.878;13.316;2023-09-19T06:42:53;94054.31;;;16.64;100.00
21588;BME280;10956;48.878;13.316;2023-09-19T06:45:19;94060.16;;;16.66;100.00
21588;BME280;10956;48.878;13.316;2023-09-19T06:47:49;94060.97;;;16.75;100.00
21588;BME280;10956;48.878;13.316;2023-09-19T06:50:15;94060.06;;;16.88;100.00
21588;BME280;10956;48.878;13.316;2023-09-19T06:52:44;94067.13;;;16.93;100.00
21588;BME280;10956;48.878;13.316;2023-09-19T06:55:10;94070.25;;;16.86;100.00
21588;BME280;10956;48.878;13.316;2023-09-19T06:57:38;94068.97;;;16.84;100.00
21588;BME280;10956;48.878;13.316;2023-09-19T07:00:06;94071.47;;;16.80;100.00
21588;BME280;10956;48.878;13.316;2023-09-19T07:02:43;94074.53;;;16.65;100.00
21588;BME280;10956;48.878;13.316;2023-09-19T07:05:09;94079.91;;;16.51;100.00
21588;BME280;10956;48.878;13.316;2023-09-19T07:07:34;94084.31;;;16.56;100.00
21588;BME280;10956;48.878;13.316;2023-09-19T07:10:02;94083.41;;;16.60;100.00
21588;BME280;10956;48.878;13.316;2023-09-19T07:12:31;94086.69;;;16.57;100.00
21588;BME280;10956;48.878;13.316;2023-09-19T07:14:56;94090.13;;;16.58;100.00
21588;BME280;10956;48.878;13.316;2023-09-19T07:17:22;94095.56;;;16.53;100.00
21588;BME280;10956;48.878;13.316;2023-09-19T07:19:49;94091.69;;;16.59;100.00
21588;BME280;10956;48.878;13.316;2023-09-19T07:22:15;94092.78;;;16.58;100.00
21588;BME280;10956;48.878;13.316;2023-09-19T07:24:41;94093.69;;;16.75;100.00
21588;BME280;10956;48.878;13.316;2023-09-19T07:27:06;94094.09;;;17.00;100.00
21588;BME280;10956;48.878;13.316;2023-09-19T07:29:31;94094.63;;;17.19;100.00
21588;BME280;10956;48.878;13.316;2023-09-19T07:31:57;94101.91;;;17.53;100.00
21588;BME280;10956;48.878;13.316;2023-09-19T07:34:22;94104.16;;;17.68;100.00
21588;BME280;10956;48.878;13.316;2023-09-19T07:36:49;94102.78;;;17.88;100.00
21588;BME280;10956;48.878;13.316;2023-09-19T07:39:15;94110.31;;;18.03;100.00
21588;BME280;10956;48.878;13.316;2023-09-19T07:41:40;94108.88;;;18.15;100.00
21588;BME280;10956;48.878;13.316;2023-09-19T07:44:07;94116.09;;;18.31;100.00
21588;BME280;10956;48.878;13.316;2023-09-19T07:46:32;94113.41;;;18.40;100.00
21588;BME280;10956;48.878;13.316;2023-09-19T07:48:58;94128.63;;;18.39;100.00
21588;BME280;10956;48.878;13.316;2023-09-19T07:51:24;94131.78;;;18.24;100.00
21588;BME280;10956;48.878;13.316;2023-09-19T07:53:49;94124.25;;;18.09;100.00
21588;BME280;10956;48.878;13.316;2023-09-19T07:56:14;94123.31;;;18.05;100.00
21588;BME280;10956;48.878;13.316;2023-09-19T07:58:40;94117.19;;;18.04;100.00
21588;BME280;10956;48.878;13.316;2023-09-19T08:01:10;94117.97;;;18.05;100.00
21588;BME280;10956;48.878;13.316;2023-09-19T08:03:36;94120.16;;;18.37;100.00
21588;BME280;10956;48.878;13.316;2023-09-19T08:06:09;94128.91;;;18.73;100.00
21588;BME280;10956;48.878;13.316;2023-09-19T08:08:35;94123.59;;;18.64;100.00
21588;BME280;10956;48.878;13.316;2023-09-19T08:11:05;94131.44;;;18.52;100.00
21588;BME280;10956;48.878;13.316;2023-09-19T08:13:40;94137.88;;;18.51;100.00
21588;BME280;10956;48.878;13.316;2023-09-19T08:16:12;94144.97;;;18.29;100.00
21588;BME280;10956;48.878;13.316;2023-09-19T08:18:37;94142.75;;;17.97;100.00
21588;BME280;10956;48.878;13.316;2023-09-19T08:21:05;94144.94;;;17.78;100.00
21588;BME280;10956;48.878;13.316;2023-09-19T08:23:33;94154.34;;;17.84;100.00
21588;BME280;10956;48.878;13.316;2023-09-19T08:25:58;94158.13;;;17.91;100.00
21588;BME280;10956;48.878;13.316;2023-09-19T08:28:28;94146.84;;;18.03;100.00
21588;BME280;10956;48.878;13.316;2023-09-19T08:30:55;94153.75;;;18.21;100.00
21588;BME280;10956;48.878;13.316;2023-09-19T08:33:20;94157.03;;;18.18;100.00
21588;BME280;10956;48.878;13.316;2023-09-19T08:35:46;94154.06;;;18.11;100.00
21588;BME280;10956;48.878;13.316;2023-09-19T08:38:11;94156.56;;;18.16;100.00
21588;BME280;10956;48.878;13.316;2023-09-19T08:40:38;94160.50;;;18.27;100.00
21588;BME280;10956;48.878;13.316;2023-09-19T08:43:08;94163.31;;;18.48;100.00
21588;BME280;10956;48.878;13.316;2023-09-19T08:45:34;94166.44;;;18.76;100.00
21588;BME280;10956;48.878;13.316;2023-09-19T08:50:48;94164.63;;;19.15;100.00
21588;BME280;10956;48.878;13.316;2023-09-19T08:53:42;94177.09;;;19.40;100.00
21588;BME280;10956;48.878;13.316;2023-09-19T08:56:14;94167.97;;;19.41;100.00
21588;BME280;10956;48.878;13.316;2023-09-19T08:58:50;94173.59;;;19.48;100.00
21588;BME280;10956;48.878;13.316;2023-09-19T09:01:18;94168.38;;;19.60;100.00
21588;BME280;10956;48.878;13.316;2023-09-19T09:03:51;94177.31;;;19.64;100.00
21588;BME280;10956;48.878;13.316;2023-09-19T09:06:17;94169.75;;;19.66;100.00
21588;BME280;10956;48.878;13.316;2023-09-19T09:08:45;94184.78;;;19.80;100.00
21588;BME280;10956;48.878;13.316;2023-09-19T09:11:11;94180.88;;;19.77;100.00
21588;BME280;10956;48.878;13.316;2023-09-19T09:13:37;94188.28;;;19.72;100.00
21588;BME280;10956;48.878;13.316;2023-09-19T09:16:04;94189.63;;;19.48;100.00
21588;BME280;10956;48.878;13.316;2023-09-19T09:18:29;94187.78;;;19.40;100.00
21588;BME280;10956;48.878;13.316;2023-09-19T09:20:55;94182.44;;;19.40;100.00
21588;BME280;10956;48.878;13.316;2023-09-19T09:23:21;94187.63;;;19.36;100.00
21588;BME280;10956;48.878;13.316;2023-09-19T09:25:50;94188.56;;;19.41;100.00
21588;BME280;10956;48.878;13.316;2023-09-19T09:28:21;94191.50;;;19.48;100.00
21588;BME280;10956;48.878;13.316;2023-09-19T09:30:47;94195.94;;;19.52;100.00
21588;BME280;10956;48.878;13.316;2023-09-19T09:33:14;94185.84;;;19.49;100.00
21588;BME280;10956;48.878;13.316;2023-09-19T09:36:07;94180.88;;;19.39;100.00
21588;BME280;10956;48.878;13.316;2023-09-19T09:41:10;94190.25;;;19.07;100.00
21588;BME280;10956;48.878;13.316;2023-09-19T09:43:40;94186.69;;;18.77;100.00
21588;BME280;10956;48.878;13.316;2023-09-19T09:51:39;94199.56;;;18.23;100.00
21588;BME280;10956;48.878;13.316;2023-09-19T09:54:11;94187.03;;;18.67;100.00
21588;BME280;10956;48.878;13.316;2023-09-19T09:56:58;94192.50;;;19.34;100.00
21588;BME280;10956;48.878;13.316;2023-09-19T09:59:50;94192.44;;;19.60;100.00
21588;BME280;10956;48.878;13.316;2023-09-19T10:02:26;94196.53;;;19.49;100.00
21588;BME280;10956;48.878;13.316;2023-09-19T10:05:11;94186.84;;;19.36;100.00
21588;BME280;10956;48.878;13.316;2023-09-19T10:08:10;94182.03;;;19.21;100.00
21588;BME280;10956;48.878;13.316;2023-09-19T10:10:39;94177.16;;;19.23;100.00
21588;BME280;10956;48.878;13.316;2023-09-19T10:13:14;94181.59;;;19.48;100.00
21588;BME280;10956;48.878;13.316;2023-09-19T10:15:45;94186.84;;;19.74;100.00
21588;BME280;10956;48.878;13.316;2023-09-19T10:18:26;94186.50;;;20.05;100.00
21588;BME280;10956;48.878;13.316;2023-09-19T10:20:53;94186.31;;;20.10;100.00
21588;BME280;10956;48.878;13.316;2023-09-19T10:23:20;94184.50;;;20.23;100.00
21588;BME280;10956;48.878;13.316;2023-09-19T10:25:51;94184.06;;;20.42;100.00
21588;BME280;10956;48.878;13.316;2023-09-19T10:28:19;94186.03;;;20.53;100.00
21588;BME280;10956;48.878;13.316;2023-09-19T10:30:50;94182.88;;;20.72;100.00
21588;BME280;10956;48.878;13.316;2023-09-19T10:33:17;94184.81;;;20.84;99.62
21588;BME280;10956;48.878;13.316;2023-09-19T10:35:47;94187.22;;;20.44;97.88
21588;BME280;10956;48.878;13.316;2023-09-19T10:38:19;94191.94;;;20.17;98.85
21588;BME280;10956;48.878;13.316;2023-09-19T10:40:55;94181.75;;;20.31;99.87
21588;BME280;10956;48.878;13.316;2023-09-19T10:43:26;94181.97;;;20.68;99.50
21588;BME280;10956;48.878;13.316;2023-09-19T10:45:57;94169.56;;;20.96;96.98
21588;BME280;10956;48.878;13.316;2023-09-19T10:48:25;94177.53;;;21.17;96.58
21588;BME280;10956;48.878;13.316;2023-09-19T10:50:57;94176.34;;;21.27;96.16
21588;BME280;10956;48.878;13.316;2023-09-19T10:53:39;94177.03;;;21.36;95.44
21588;BME280;10956;48.878;13.316;2023-09-19T10:56:05;94171.44;;;21.41;95.51
21588;BME280;10956;48.878;13.316;2023-09-19T10:58:35;94176.34;;;21.39;95.83
21588;BME280;10956;48.878;13.316;2023-09-19T11:01:04;94174.78;;;21.26;96.03
21588;BME280;10956;48.878;13.316;2023-09-19T11:03:38;94175.59;;;21.06;96.91
21588;BME280;10956;48.878;13.316;2023-09-19T11:08:56;94173.81;;;20.98;98.21
21588;BME280;10956;48.878;13.316;2023-09-19T11:36:14;94186.13;;;20.15;100.00
21588;BME280;10956;48.878;13.316;2023-09-19T11:46:30;94197.16;;;19.08;100.00
21588;BME280;10956;48.878;13.316;2023-09-19T11:49:05;94203.63;;;18.98;100.00
21588;BME280;10956;48.878;13.316;2023-09-19T11:51:40;94224.06;;;18.77;100.00
21588;BME280;10956;48.878;13.316;2023-09-19T11:54:10;94230.19;;;18.43;100.00
21588;BME280;10956;48.878;13.316;2023-09-19T11:56:57;94241.44;;;18.05;100.00
21588;BME280;10956;48.878;13.316;2023-09-19T11:59:24;94236.31;;;17.69;100.00
21588;BME280;10956;48.878;13.316;2023-09-19T12:01:57;94237.78;;;17.53;100.00
21588;BME280;10956;48.878;13.316;2023-09-19T12:04:36;94229.44;;;17.77;100.00
21588;BME280;10956;48.878;13.316;2023-09-19T12:07:06;94229.69;;;18.15;100.00
21588;BME280;10956;48.878;13.316;2023-09-19T12:09:39;94219.34;;;18.31;100.00
21588;BME280;10956;48.878;13.316;2023-09-19T12:12:06;94216.84;;;18.52;100.00
21588;BME280;10956;48.878;13.316;2023-09-19T12:14:32;94223.09;;;18.38;100.00
21588;BME280;10956;48.878;13.316;2023-09-19T12:16:58;94227.50;;;18.34;100.00
21588;BME280;10956;48.878;13.316;2023-09-19T12:19:26;94229.69;;;18.32;100.00
21588;BME280;10956;48.878;13.316;2023-09-19T12:21:56;94226.09;;;18.37;100.00
21588;BME280;10956;48.878;13.316;2023-09-19T12:24:27;94218.41;;;18.35;100.00
21588;BME280;10956;48.878;13.316;2023-09-19T12:27:00;94224.50;;;18.27;100.00
21588;BME280;10956;48.878;13.316;2023-09-19T12:29:27;94213.53;;;18.46;100.00
21588;BME280;10956;48.878;13.316;2023-09-19T12:31:57;94218.44;;;18.70;100.00
21588;BME280;10956;48.878;13.316;2023-09-19T12:34:27;94217.28;;;18.97;100.00
21588;BME280;10956;48.878;13.316;2023-09-19T12:37:12;94225.13;;;19.02;100.00
21588;BME280;10956;48.878;13.316;2023-09-19T12:39:44;94217.44;;;19.00;100.00
21588;BME280;10956;48.878;13.316;2023-09-19T12:42:15;94216.66;;;19.00;100.00
21588;BME280;10956;48.878;13.316;2023-09-19T12:44:45;94211.59;;;19.16;100.00
21588;BME280;10956;48.878;13.316;2023-09-19T12:47:16;94208.88;;;19.33;100.00
21588;BME280;10956;48.878;13.316;2023-09-19T12:50:07;94210.78;;;19.24;100.00
21588;BME280;10956;48.878;13.316;2023-09-19T12:52:37;94201.72;;;19.08;100.00
21588;BME280;10956;48.878;13.316;2023-09-19T12:55:04;94206.13;;;19.03;100.00
21588;BME280;10956;48.878;13.316;2023-09-19T12:57:32;94206.13;;;19.03;100.00
21588;BME280;10956;48.878;13.316;2023-09-19T13:00:03;94200.34;;;18.84;100.00
21588;BME280;10956;48.878;13.316;2023-09-19T13:02:36;94197.38;;;18.77;100.00
21588;BME280;10956;48.878;13.316;2023-09-19T13:05:02;94201.91;;;18.85;100.00
21588;BME280;10956;48.878;13.316;2023-09-19T13:07:43;94194.69;;;18.86;100.00
21588;BME280;10956;48.878;13.316;2023-09-19T13:10:13;94192.94;;;18.98;100.00
21588;BME280;10956;48.878;13.316;2023-09-19T13:12:43;94184.88;;;19.16;100.00
21588;BME280;10956;48.878;13.316;2023-09-19T13:15:14;94182.94;;;19.33;100.00
21588;BME280;10956;48.878;13.316;2023-09-19T13:17:51;94191.84;;;19.46;100.00
21588;BME280;10956;48.878;13.316;2023-09-19T13:20:25;94182.09;;;19.42;100.00
21588;BME280;10956;48.878;13.316;2023-09-19T13:22:57;94187.84;;;19.23;100.00
21588;BME280;10956;48.878;13.316;2023-09-19T13:25:31;94184.13;;;19.07;100.00
21588;BME280;10956;48.878;13.316;2023-09-19T13:27:58;94170.47;;;18.99;100.00
21588;BME280;10956;48.878;13.316;2023-09-19T13:30:28;94176.63;;;18.91;100.00
21588;BME280;10956;48.878;13.316;2023-09-19T13:33:10;94164.84;;;18.84;100.00
21588;BME280;10956;48.878;13.316;2023-09-19T13:35:36;94171.16;;;18.79;100.00
21588;BME280;10956;48.878;13.316;2023-09-19T13:38:03;94168.97;;;18.73;100.00
21588;BME280;10956;48.878;13.316;2023-09-19T13:40:29;94162.53;;;18.65;100.00
21588;BME280;10956;48.878;13.316;2023-09-19T13:43:03;94163.00;;;18.58;100.00
21588;BME280;10956;48.878;13.316;2023-09-19T13:45:28;94167.53;;;18.58;100.00
21588;BME280;10956;48.878;13.316;2023-09-19T13:47:56;94159.38;;;18.46;100.00